Time;durP1;ratioP1;P1;durP2;ratioP2;P2;SDS_P1;SDS_P2;PMS_P1;PMS_P2;Temp;Humidity;BMP_temperature;BMP_pressure;BME280_temperature;BME280_humidity;BME280_pressure;Samples;Min_cycle;Max_cycle;Signal;HPM_P1;HPM_P2
2022/11/04 00:01:22;;;;;;;11.60;4.78;;;;;;;15.10;60.25;99618.28;4972030;28;120556;-76
2022/11/04 00:03:47;;;;;;;12.90;5.33;;;;;;;15.10;60.76;99621.03;4977769;28;119639;-75
2022/11/04 00:06:16;;;;;;;12.77;5.03;;;;;;;15.10;60.63;99610.00;4973354;28;119603;-76
2022/11/04 00:08:42;;;;;;;11.50;4.97;;;;;;;15.13;60.25;99614.50;4981190;28;120635;-75
2022/11/04 00:13:53;;;;;;;12.93;5.00;;;;;;;15.15;61.02;99594.69;4978873;28;120221;-76
2022/11/04 00:19:17;;;;;;;10.27;4.85;;;;;;;15.16;60.90;99591.41;4981235;28;119737;-76
2022/11/04 00:30:15;;;;;;;11.70;4.75;;;;;;;15.22;60.89;99583.84;4970156;28;119683;-76
2022/11/04 00:35:25;;;;;;;11.70;4.78;;;;;;;15.23;61.01;99568.78;4968504;28;120595;-76
2022/11/04 00:37:51;;;;;;;9.93;4.70;;;;;;;15.24;60.74;99570.28;4973447;28;119633;-76
2022/11/04 00:40:18;;;;;;;11.68;5.20;;;;;;;15.24;61.14;99562.00;4987653;28;119548;-76
2022/11/04 00:42:48;;;;;;;11.35;4.75;;;;;;;15.23;60.81;99556.97;4989674;28;119750;-76
2022/11/04 00:45:14;;;;;;;9.30;4.70;;;;;;;15.18;60.90;99560.53;4985964;28;119349;-75
2022/11/04 00:47:39;;;;;;;11.95;4.93;;;;;;;15.19;61.17;99562.78;4980825;28;120232;-76
2022/11/04 00:50:06;;;;;;;10.68;5.10;;;;;;;15.14;61.00;99560.78;4984483;28;119992;-75
2022/11/04 00:52:31;;;;;;;9.53;4.53;;;;;;;15.20;61.64;99574.56;4988448;28;119541;-75
2022/11/04 00:54:57;;;;;;;12.75;5.03;;;;;;;15.19;61.43;99573.81;4987893;28;119716;-76
2022/11/04 00:57:23;;;;;;;11.40;4.90;;;;;;;15.20;61.24;99580.84;4975486;27;119925;-76
2022/11/04 00:59:48;;;;;;;10.63;5.00;;;;;;;15.20;61.12;99566.28;4987940;28;119406;-76
2022/11/04 01:02:14;;;;;;;10.33;4.80;;;;;;;15.21;61.44;99571.31;4985216;28;121035;-76
2022/11/04 01:04:40;;;;;;;11.43;5.13;;;;;;;15.22;61.27;99577.59;4989868;28;119683;-76
2022/11/04 01:07:05;;;;;;;10.00;4.80;;;;;;;15.24;61.53;99575.06;4993617;28;119315;-76
2022/11/04 01:09:31;;;;;;;10.27;5.20;;;;;;;15.18;61.68;99553.00;4998857;27;119650;-76
2022/11/04 01:11:57;;;;;;;12.00;5.30;;;;;;;15.26;61.53;99567.75;4977540;28;119726;-76
2022/11/04 01:14:23;;;;;;;13.23;5.17;;;;;;;15.24;61.90;99559.22;4986887;28;119613;-76
2022/11/04 01:16:49;;;;;;;12.30;5.47;;;;;;;15.27;61.68;99563.75;4971693;28;119538;-76
2022/11/04 01:19:15;;;;;;;12.35;5.25;;;;;;;15.26;62.01;99551.19;4988659;28;120282;-76
2022/11/04 01:21:41;;;;;;;12.38;5.10;;;;;;;15.29;62.09;99552.94;4982059;28;119867;-76
2022/11/04 01:24:07;;;;;;;12.00;5.45;;;;;;;15.28;62.62;99539.63;4976019;28;119702;-75
2022/11/04 01:26:33;;;;;;;12.75;5.20;;;;;;;15.30;62.29;99537.09;4977511;28;119701;-76
2022/11/04 01:28:59;;;;;;;11.47;5.40;;;;;;;15.27;62.05;99529.84;4980873;28;119826;-76
2022/11/04 01:31:27;;;;;;;11.10;5.55;;;;;;;15.26;62.45;99533.88;4993345;28;119880;-76
2022/11/04 01:33:53;;;;;;;11.63;5.40;;;;;;;15.21;62.94;99532.63;4991088;28;119869;-76
2022/11/04 01:36:20;;;;;;;10.40;5.30;;;;;;;15.19;62.46;99529.63;4982572;28;119628;-76
2022/11/04 01:39:10;;;;;;;10.88;5.38;;;;;;;15.16;62.75;99524.38;4962252;28;120022;-76
2022/11/04 01:41:36;;;;;;;10.75;5.63;;;;;;;15.13;62.94;99515.06;4983795;28;121951;-75
2022/11/04 01:44:23;;;;;;;12.55;5.45;;;;;;;15.14;62.97;99513.84;4990912;28;119925;-76
2022/11/04 01:46:52;;;;;;;10.70;5.38;;;;;;;15.15;62.97;99512.59;4988942;28;120230;-76
2022/11/04 01:49:38;;;;;;;12.35;5.30;;;;;;;15.14;63.06;99511.09;4970640;28;121341;-75
2022/11/04 01:52:20;;;;;;;13.35;5.30;;;;;;;15.07;62.60;99500.56;4977534;28;119580;-76
2022/11/04 01:54:47;;;;;;;14.27;5.60;;;;;;;15.15;63.08;99512.59;4993784;28;119728;-75
2022/11/04 01:57:17;;;;;;;11.43;5.50;;;;;;;15.16;63.24;99508.56;4989575;28;119858;-75
2022/11/04 01:59:44;;;;;;;11.52;5.70;;;;;;;15.20;63.53;99503.50;4975580;28;120103;-75
2022/11/04 02:02:10;;;;;;;13.23;5.85;;;;;;;15.20;63.34;99500.75;4981814;28;119961;-76
2022/11/04 02:04:37;;;;;;;11.98;5.63;;;;;;;15.20;63.14;99492.47;4995573;28;119686;-76
2022/11/04 02:07:06;;;;;;;12.83;5.77;;;;;;;15.21;63.01;99493.22;4982387;28;119362;-76
2022/11/04 02:09:33;;;;;;;13.48;5.78;;;;;;;15.20;63.58;99502.75;4979426;28;121379;-76
2022/11/04 02:14:46;;;;;;;12.50;6.20;;;;;;;15.18;64.07;99481.19;4989881;28;119874;-76
2022/11/04 02:17:18;;;;;;;11.60;6.38;;;;;;;15.16;64.64;99480.94;4986537;28;119455;-76
2022/11/04 02:19:58;;;;;;;12.57;6.72;;;;;;;15.14;64.60;99471.63;4983184;28;119435;-76
2022/11/04 02:22:47;;;;;;;11.48;6.60;;;;;;;15.12;65.20;99472.16;4979020;28;119928;-77
2022/11/04 02:25:46;;;;;;;16.83;7.25;;;;;;;15.14;65.11;99475.19;4985278;28;119439;-76
2022/11/04 02:28:29;;;;;;;14.15;7.20;;;;;;;15.13;65.38;99464.63;4987287;28;120569;-76
2022/11/04 02:31:07;;;;;;;12.43;7.47;;;;;;;15.11;65.72;99462.38;4983912;28;120029;-76
2022/11/04 02:33:47;;;;;;;13.87;7.60;;;;;;;15.09;65.37;99461.38;4984194;28;120150;-76
2022/11/04 02:36:24;;;;;;;12.95;7.47;;;;;;;15.11;65.72;99456.84;4976380;28;119420;-77
2022/11/04 02:38:56;;;;;;;13.73;7.88;;;;;;;15.11;65.41;99464.38;4983459;28;120372;-79
2022/11/04 02:41:45;;;;;;;14.75;7.60;;;;;;;15.10;65.94;99482.22;4981191;28;119829;-77
2022/11/04 02:44:48;;;;;;;13.10;7.73;;;;;;;15.10;66.23;99480.19;4975770;28;120568;-76
2022/11/04 02:47:27;;;;;;;14.73;7.70;;;;;;;15.08;66.03;99468.91;4978437;28;119821;-77
2022/11/04 02:50:13;;;;;;;13.80;7.90;;;;;;;15.08;66.25;99468.16;4977079;28;119752;-77
2022/11/04 02:52:45;;;;;;;14.50;8.30;;;;;;;15.08;66.14;99471.69;4976066;28;119625;-77
2022/11/04 02:55:23;;;;;;;15.43;8.10;;;;;;;15.07;66.38;99472.94;4981688;28;120177;-77
2022/11/04 02:57:52;;;;;;;16.60;8.73;;;;;;;15.06;66.27;99465.91;4975339;28;119900;-76
2022/11/04 03:00:20;;;;;;;12.50;8.48;;;;;;;15.12;66.43;99461.09;4980359;28;120166;-77
2022/11/04 03:03:08;;;;;;;16.30;8.40;;;;;;;15.15;66.13;99473.91;4983832;28;119844;-77
2022/11/04 03:05:37;;;;;;;14.83;8.80;;;;;;;15.17;66.12;99465.88;4977108;28;120228;-76
2022/11/04 03:08:15;;;;;;;16.27;9.27;;;;;;;15.14;65.77;99449.53;4980948;28;119614;-77
2022/11/04 03:10:45;;;;;;;15.70;9.32;;;;;;;15.13;66.09;99448.78;4978829;28;120402;-77
2022/11/04 03:13:20;;;;;;;15.17;9.20;;;;;;;15.10;66.39;99447.06;4978758;28;120028;-77
2022/11/04 03:15:51;;;;;;;15.48;9.70;;;;;;;15.09;66.58;99453.09;4981785;28;119719;-77
2022/11/04 03:18:33;;;;;;;19.23;10.20;;;;;;;15.04;66.76;99429.78;4975070;28;119767;-76
2022/11/04 03:21:01;;;;;;;18.92;10.77;;;;;;;15.06;66.70;99424.50;4980690;28;119512;-77
2022/11/04 03:23:28;;;;;;;15.40;10.87;;;;;;;15.04;66.71;99432.53;4980394;28;119717;-76
2022/11/04 03:26:31;;;;;;;15.88;11.18;;;;;;;15.03;67.24;99440.06;4987406;28;119805;-76
2022/11/04 03:28:59;;;;;;;17.67;10.83;;;;;;;15.04;67.19;99429.78;4984696;28;119564;-77
2022/11/04 03:31:37;;;;;;;17.45;11.52;;;;;;;15.05;67.24;99434.03;4984353;28;119768;-76
2022/11/04 03:34:03;;;;;;;16.38;11.55;;;;;;;14.98;67.00;99406.97;4981669;28;119888;-76
2022/11/04 03:36:29;;;;;;;17.00;11.60;;;;;;;15.01;67.19;99426.03;4983284;28;119534;-77
2022/11/04 03:38:54;;;;;;;19.27;11.40;;;;;;;15.01;67.25;99441.84;4984217;28;119475;-76
2022/11/04 03:41:37;;;;;;;17.97;11.80;;;;;;;15.02;67.20;99437.84;4974113;28;120436;-77
2022/11/04 03:44:03;;;;;;;18.08;11.20;;;;;;;14.98;67.05;99435.34;4975559;28;120105;-77
2022/11/04 03:46:29;;;;;;;16.90;11.57;;;;;;;15.05;67.47;99442.31;4974757;28;119745;-77
2022/11/04 03:48:56;;;;;;;16.00;12.10;;;;;;;15.07;67.27;99433.53;4978295;28;120092;-77
2022/11/04 03:51:23;;;;;;;19.05;12.05;;;;;;;15.05;66.87;99431.28;4970961;28;120468;-77
2022/11/04 03:53:49;;;;;;;15.48;11.60;;;;;;;15.03;67.58;99429.03;4983576;28;119540;-76
2022/11/04 03:56:39;;;;;;;17.48;11.82;;;;;;;15.09;67.49;99434.50;4986261;27;119911;-77
2022/11/04 03:59:27;;;;;;;17.67;11.82;;;;;;;15.10;67.15;99438.78;4972932;28;119667;-76
2022/11/04 04:02:23;;;;;;;18.48;12.13;;;;;;;15.09;67.41;99431.75;4988757;27;120165;-76
2022/11/04 04:05:06;;;;;;;18.23;12.45;;;;;;;15.12;67.30;99425.19;4981386;28;119510;-76
2022/11/04 04:07:40;;;;;;;18.20;12.45;;;;;;;15.14;67.27;99422.72;4978191;28;119503;-76
2022/11/04 04:10:37;;;;;;;17.92;12.50;;;;;;;15.14;67.18;99430.22;4975519;28;119365;-77
2022/11/04 04:12:59;;;;;;;20.17;13.30;;;;;;;15.12;67.30;99419.69;4974737;28;119597;-76
2022/11/04 04:15:41;;;;;;;17.77;13.32;;;;;;;15.17;67.64;99413.41;4973958;28;120426;-76
2022/11/04 04:18:12;;;;;;;19.30;13.48;;;;;;;15.15;67.32;99418.69;4974143;28;119891;-76
2022/11/04 04:20:39;;;;;;;22.35;13.98;;;;;;;15.20;66.97;99415.13;4974809;28;121398;-76
2022/11/04 04:28:47;;;;;;;18.95;13.30;;;;;;;15.21;67.04;99408.34;4971605;28;119827;-76
2022/11/04 04:31:48;;;;;;;19.15;13.70;;;;;;;15.26;66.90;99410.31;4975866;28;121034;-76
2022/11/04 04:34:01;;;;;;;21.73;14.63;;;;;;;15.27;66.82;99411.06;4984001;28;120048;-77
2022/11/04 04:36:30;;;;;;;23.63;14.43;;;;;;;15.33;66.70;99409.75;4978320;28;120298;-76
2022/11/04 04:47:20;;;;;;;19.75;14.32;;;;;;;15.35;67.40;99401.69;4980172;28;119951;-76
2022/11/04 04:49:53;;;;;;;19.17;14.38;;;;;;;15.36;66.74;99400.44;4974677;28;120149;-76
2022/11/04 04:52:20;;;;;;;20.92;15.00;;;;;;;15.33;66.85;99397.94;4977534;28;119429;-76
2022/11/04 04:54:46;;;;;;;18.85;14.18;;;;;;;15.38;66.81;99399.16;4972526;28;119699;-76
2022/11/04 04:57:12;;;;;;;20.63;14.77;;;;;;;15.39;66.84;99397.94;4980014;28;120091;-77
2022/11/04 04:59:38;;;;;;;20.73;14.45;;;;;;;15.36;66.76;99399.69;4975597;28;119705;-76
2022/11/04 05:02:03;;;;;;;20.85;14.77;;;;;;;15.35;66.81;99398.94;4978961;28;119509;-76
2022/11/04 05:04:29;;;;;;;21.35;14.98;;;;;;;15.38;66.85;99401.94;4980332;28;120216;-76
2022/11/04 05:06:56;;;;;;;19.33;14.97;;;;;;;15.38;66.64;99407.44;4978254;28;119775;-77
2022/11/04 05:09:22;;;;;;;20.10;14.73;;;;;;;15.42;66.84;99402.41;4973771;28;120984;-76
2022/11/04 05:11:48;;;;;;;21.87;15.40;;;;;;;15.43;66.87;99396.38;4974897;28;119891;-77
2022/11/04 05:14:14;;;;;;;20.80;14.77;;;;;;;15.40;66.28;99404.94;4979976;28;119889;-77
2022/11/04 05:16:39;;;;;;;19.05;14.70;;;;;;;15.36;66.74;99408.72;4971908;28;119674;-77
2022/11/04 05:19:05;;;;;;;21.48;15.50;;;;;;;15.41;66.93;99406.44;4977663;28;119893;-77
2022/11/04 05:21:31;;;;;;;19.87;14.93;;;;;;;15.38;66.68;99411.00;4979226;28;120014;-76
2022/11/04 05:23:56;;;;;;;23.43;15.37;;;;;;;15.43;67.05;99403.91;4973397;28;119875;-77
2022/11/04 05:26:22;;;;;;;20.83;15.53;;;;;;;15.43;66.72;99414.97;4975393;28;119559;-77
2022/11/04 05:28:48;;;;;;;20.53;14.97;;;;;;;15.45;66.83;99421.47;4975385;28;119888;-77
2022/11/04 05:31:13;;;;;;;22.80;16.00;;;;;;;15.47;66.75;99418.19;4976644;28;119511;-77
2022/11/04 05:33:39;;;;;;;19.67;15.00;;;;;;;15.46;66.60;99425.75;4976563;28;119676;-77
2022/11/04 05:36:13;;;;;;;22.10;15.10;;;;;;;15.48;66.41;99425.97;4973422;28;119485;-77
2022/11/04 05:38:39;;;;;;;20.70;15.30;;;;;;;15.46;66.48;99425.00;4974019;28;119990;-77
2022/11/04 05:41:06;;;;;;;20.85;15.10;;;;;;;15.44;66.67;99430.28;4984109;28;119424;-76
2022/11/04 05:43:33;;;;;;;19.60;14.90;;;;;;;15.45;66.72;99424.25;4959057;28;119981;-77
2022/11/04 05:46:03;;;;;;;20.48;15.30;;;;;;;15.47;66.57;99423.72;4976972;28;120430;-76
2022/11/04 05:48:29;;;;;;;18.02;14.90;;;;;;;15.47;66.61;99420.97;4977259;28;120014;-76
2022/11/04 05:50:54;;;;;;;19.10;15.18;;;;;;;15.50;66.53;99428.22;4973155;28;120178;-77
2022/11/04 05:53:23;;;;;;;19.70;15.27;;;;;;;15.48;67.11;99428.72;4974144;28;119803;-76
2022/11/04 05:55:49;;;;;;;22.13;16.52;;;;;;;15.46;67.08;99441.56;4976583;28;119998;-77
2022/11/04 05:58:14;;;;;;;21.63;16.52;;;;;;;15.43;67.29;99442.59;4979341;28;119871;-76
2022/11/04 06:00:40;;;;;;;19.85;16.35;;;;;;;15.40;67.92;99443.63;4976889;28;119541;-77
2022/11/04 06:03:06;;;;;;;15.90;13.52;;;;;;;15.38;67.69;99435.06;4979411;28;119902;-76
2022/11/04 06:05:32;;;;;;;16.20;12.43;;;;;;;15.33;67.54;99433.84;4975403;28;119886;-77
2022/11/04 06:07:58;;;;;;;17.10;13.20;;;;;;;15.34;67.46;99436.09;4958805;28;119774;-77
2022/11/04 06:10:24;;;;;;;16.30;12.67;;;;;;;15.40;67.80;99440.88;4970153;28;119927;-76
2022/11/04 06:12:52;;;;;;;17.17;13.10;;;;;;;15.40;67.91;99443.63;4976855;28;119583;-76
2022/11/04 06:15:18;;;;;;;16.60;12.20;;;;;;;15.36;67.21;99444.63;4977326;28;119594;-77
2022/11/04 06:17:46;;;;;;;14.80;10.95;;;;;;;15.32;67.84;99437.88;4977188;28;119963;-77
2022/11/04 06:20:12;;;;;;;13.47;9.40;;;;;;;15.32;67.11;99438.63;4975598;28;119696;-77
2022/11/04 06:22:37;;;;;;;13.13;9.15;;;;;;;15.27;67.65;99436.66;4977313;28;119954;-77
2022/11/04 06:25:03;;;;;;;11.40;8.13;;;;;;;15.29;67.70;99449.97;4981205;28;119631;-77
2022/11/04 06:27:29;;;;;;;9.73;6.43;;;;;;;15.27;67.39;99436.66;4968793;28;121485;-77
2022/11/04 06:29:55;;;;;;;9.27;5.87;;;;;;;15.26;67.29;99443.44;4970253;28;121435;-76
2022/11/04 06:32:20;;;;;;;9.07;5.03;;;;;;;15.25;67.11;99435.69;4974690;28;120147;-76
2022/11/04 06:34:46;;;;;;;9.00;3.80;;;;;;;15.20;67.22;99428.19;4973468;28;119598;-76
2022/11/04 06:37:12;;;;;;;6.57;3.30;;;;;;;15.22;66.85;99434.69;4974190;28;119992;-76
2022/11/04 06:39:37;;;;;;;6.35;3.38;;;;;;;15.20;66.97;99448.28;4974386;28;119526;-76
2022/11/04 06:42:04;;;;;;;7.75;3.20;;;;;;;15.16;66.85;99442.28;4973895;28;121813;-76
2022/11/04 06:44:30;;;;;;;8.05;3.25;;;;;;;15.16;67.41;99447.81;4977969;28;122055;-76
2022/11/04 06:46:56;;;;;;;9.35;3.30;;;;;;;15.15;67.13;99445.56;4975436;28;119406;-77
2022/11/04 06:49:22;;;;;;;6.67;3.50;;;;;;;15.15;66.97;99457.34;4977542;28;120411;-76
2022/11/04 06:51:48;;;;;;;7.63;4.07;;;;;;;15.10;67.36;99452.59;4977470;28;119931;-76
2022/11/04 06:54:15;;;;;;;9.50;3.80;;;;;;;15.12;67.53;99447.28;4979821;27;119609;-77
2022/11/04 06:56:41;;;;;;;7.18;3.60;;;;;;;15.13;67.79;99445.28;4972234;28;120493;-76
2022/11/04 06:59:11;;;;;;;8.67;3.00;;;;;;;15.15;67.74;99451.81;4978587;28;120092;-77
2022/11/04 07:01:37;;;;;;;6.73;2.60;;;;;;;15.16;67.49;99450.56;4971461;28;119559;-76
2022/11/04 07:04:04;;;;;;;10.17;2.63;;;;;;;15.15;67.62;99449.06;4974356;28;120298;-77
2022/11/04 07:06:30;;;;;;;9.60;2.70;;;;;;;15.10;67.46;99443.56;4981674;28;119856;-77
2022/11/04 07:08:58;;;;;;;8.20;2.30;;;;;;;15.15;67.28;99451.81;4974145;28;119517;-76
2022/11/04 07:11:25;;;;;;;8.00;2.22;;;;;;;15.15;67.41;99468.41;4967904;28;119608;-76
2022/11/04 07:13:51;;;;;;;8.95;2.30;;;;;;;15.14;67.43;99466.91;4977336;28;119960;-76
2022/11/04 07:16:17;;;;;;;9.15;2.13;;;;;;;15.15;67.75;99473.91;4970271;28;119972;-77
2022/11/04 07:18:44;;;;;;;8.93;2.23;;;;;;;15.15;67.90;99475.94;4984017;28;119733;-76
2022/11/04 07:21:11;;;;;;;8.73;1.75;;;;;;;15.19;67.91;99474.38;4979119;28;119566;-77
2022/11/04 07:23:37;;;;;;;8.40;1.77;;;;;;;15.17;67.77;99476.91;4969996;28;122387;-76
2022/11/04 07:26:05;;;;;;;6.82;1.70;;;;;;;15.16;68.16;99480.19;4978562;28;119979;-77
2022/11/04 07:28:31;;;;;;;8.93;1.75;;;;;;;15.14;68.02;99466.91;4976212;28;119351;-76
2022/11/04 07:30:58;;;;;;;12.23;2.00;;;;;;;15.15;68.28;99473.16;4976400;28;119643;-76
2022/11/04 07:33:25;;;;;;;11.57;1.75;;;;;;;15.08;67.91;99468.91;4979520;28;119780;-77
2022/11/04 07:35:52;;;;;;;10.48;1.80;;;;;;;15.13;68.71;99490.22;4977034;28;119919;-76
2022/11/04 07:38:18;;;;;;;12.33;2.10;;;;;;;15.17;68.17;99487.22;4977847;28;119872;-76
2022/11/04 07:40:45;;;;;;;14.30;2.23;;;;;;;15.17;68.27;99492.75;4982166;28;119796;-76
2022/11/04 07:43:10;;;;;;;9.77;2.10;;;;;;;15.21;68.38;99499.50;4982621;28;119594;-77
2022/11/04 07:46:05;;;;;;;11.55;2.10;;;;;;;15.21;68.09;99496.72;4981266;28;119616;-76
2022/11/04 07:48:31;;;;;;;12.05;2.05;;;;;;;15.21;68.61;99495.97;4972633;28;119830;-77
2022/11/04 07:50:58;;;;;;;10.40;2.00;;;;;;;15.16;68.77;99494.75;4977596;28;120011;-76
2022/11/04 07:53:25;;;;;;;8.23;1.80;;;;;;;15.22;68.41;99512.03;4975898;28;119985;-77
2022/11/04 07:55:51;;;;;;;10.00;2.03;;;;;;;15.21;68.36;99509.78;4972696;28;119570;-76
2022/11/04 07:58:18;;;;;;;10.77;1.90;;;;;;;15.23;68.36;99513.53;4970512;28;119970;-77
2022/11/04 08:00:44;;;;;;;10.93;2.40;;;;;;;15.26;68.22;99509.75;4968217;28;119583;-77
2022/11/04 08:03:10;;;;;;;11.60;2.40;;;;;;;15.33;68.50;99514.72;4976953;28;120226;-77
2022/11/04 08:05:36;;;;;;;11.27;2.20;;;;;;;15.39;67.80;99522.25;4983089;28;120361;-77
2022/11/04 08:08:01;;;;;;;13.90;2.47;;;;;;;15.45;68.00;99528.50;4981305;28;119843;-77
2022/11/04 08:10:28;;;;;;;13.40;2.30;;;;;;;15.48;67.86;99533.00;4982263;28;120293;-76
2022/11/04 08:12:53;;;;;;;12.98;2.15;;;;;;;15.49;67.63;99540.00;4984704;28;119735;-77
2022/11/04 08:15:19;;;;;;;14.13;2.08;;;;;;;15.53;67.72;99544.00;4980112;28;120071;-77
2022/11/04 08:17:45;;;;;;;11.75;2.17;;;;;;;15.55;67.14;99552.53;4979178;28;119964;-77
2022/11/04 08:20:11;;;;;;;12.27;2.10;;;;;;;15.55;67.64;99549.03;4980945;28;120105;-77
2022/11/04 08:22:36;;;;;;;12.15;2.03;;;;;;;15.54;67.38;99544.75;4978681;27;119939;-77
2022/11/04 08:25:02;;;;;;;9.98;1.92;;;;;;;15.61;67.53;99552.53;4982349;28;119751;-77
2022/11/04 08:27:28;;;;;;;12.57;2.77;;;;;;;15.69;68.02;99550.72;4981131;28;120521;-76
2022/11/04 08:29:54;;;;;;;12.43;2.77;;;;;;;15.81;67.11;99554.16;4982270;28;120097;-76
2022/11/04 08:32:19;;;;;;;12.50;2.67;;;;;;;15.86;66.46;99561.69;4981662;28;120175;-76
2022/11/04 08:34:45;;;;;;;13.27;2.87;;;;;;;15.86;66.18;99559.66;4982927;27;119731;-76
2022/11/04 08:37:15;;;;;;;14.17;2.90;;;;;;;15.80;66.14;99553.41;4977781;28;120010;-77
2022/11/04 08:39:42;;;;;;;14.35;2.78;;;;;;;15.78;65.95;99572.53;4977442;28;119632;-77
2022/11/04 08:42:08;;;;;;;18.07;3.50;;;;;;;15.71;66.44;99581.38;4980681;28;119660;-76
2022/11/04 08:44:34;;;;;;;14.35;3.20;;;;;;;15.70;66.59;99587.41;4984031;28;119699;-77
2022/11/04 08:47:01;;;;;;;17.13;3.37;;;;;;;15.69;66.27;99594.97;4981707;28;119477;-76
2022/11/04 08:49:27;;;;;;;16.15;2.85;;;;;;;15.72;66.33;99585.63;4981882;28;119741;-77
2022/11/04 08:52:11;;;;;;;17.98;3.15;;;;;;;15.77;65.96;99586.84;4967349;22;120156;-71
2022/11/04 08:54:37;;;;;;;15.60;3.15;;;;;;;15.80;65.69;99581.06;4931329;28;119596;-71
2022/11/04 08:57:02;;;;;;;13.53;2.97;;;;;;;15.82;65.38;99597.13;4945544;28;119509;-71
2022/11/04 08:59:28;;;;;;;14.70;2.80;;;;;;;15.86;64.96;99592.84;4923679;28;120202;-71
2022/11/04 09:01:54;;;;;;;15.20;2.90;;;;;;;15.88;64.78;99593.09;4942011;28;120005;-71
2022/11/04 09:04:20;;;;;;;16.33;2.90;;;;;;;15.91;64.04;99591.31;4934698;28;121733;-70
2022/11/04 09:07:17;;;;;;;14.73;2.70;;;;;;;15.94;64.23;99607.63;4897184;28;120347;-71
2022/11/04 09:09:43;;;;;;;13.95;2.97;;;;;;;15.99;64.08;99599.78;4936959;28;120186;-71
2022/11/04 09:12:10;;;;;;;14.18;2.75;;;;;;;16.01;63.57;99594.50;4930858;28;120090;-69
2022/11/04 09:14:36;;;;;;;14.13;3.00;;;;;;;16.01;63.48;99600.78;4930810;28;119926;-70
2022/11/04 09:17:01;;;;;;;12.50;2.92;;;;;;;16.02;63.38;99601.53;4931120;28;120111;-72
2022/11/04 09:19:27;;;;;;;13.38;2.55;;;;;;;15.98;63.19;99609.34;4931343;28;120891;-71
2022/11/04 09:22:13;;;;;;;14.75;2.95;;;;;;;15.98;63.51;99618.41;4921010;28;119976;-70
2022/11/04 09:24:39;;;;;;;13.32;2.60;;;;;;;15.95;63.88;99625.72;4919771;28;119784;-71
2022/11/04 09:27:05;;;;;;;17.23;2.70;;;;;;;15.95;63.36;99614.66;4935233;28;119823;-70
2022/11/04 09:29:36;;;;;;;14.77;3.08;;;;;;;15.99;63.24;99621.91;4932336;28;119872;-70
2022/11/04 09:32:03;;;;;;;17.03;2.87;;;;;;;16.07;63.10;99631.16;4934121;28;120061;-71
2022/11/04 09:34:29;;;;;;;14.10;2.97;;;;;;;16.11;63.50;99637.19;4934646;28;119525;-71
2022/11/04 09:36:55;;;;;;;18.33;3.55;;;;;;;16.11;63.98;99648.25;4933404;28;120100;-71
2022/11/04 09:39:22;;;;;;;19.08;3.25;;;;;;;16.08;63.80;99652.00;4934952;28;120792;-70
2022/11/04 09:42:26;;;;;;;13.63;2.97;;;;;;;16.11;63.88;99656.53;4932500;28;120398;-71
2022/11/04 09:45:03;;;;;;;18.03;3.37;;;;;;;16.11;63.60;99653.78;4932953;28;119610;-71
2022/11/04 09:47:31;;;;;;;17.30;3.20;;;;;;;16.13;63.11;99670.63;4932602;28;119576;-71
2022/11/04 09:50:13;;;;;;;18.60;3.53;;;;;;;16.12;62.99;99667.09;4931163;28;119580;-71
2022/11/04 09:52:43;;;;;;;14.30;2.77;;;;;;;16.13;62.85;99685.19;4932065;28;120181;-70
2022/11/04 09:55:48;;;;;;;11.38;2.63;;;;;;;16.14;62.82;99697.00;4932878;28;120108;-70
2022/11/04 09:58:13;;;;;;;14.63;2.65;;;;;;;16.16;62.47;99702.78;4915061;28;120285;-70
2022/11/04 10:00:43;;;;;;;16.77;3.10;;;;;;;16.19;62.59;99698.97;4935450;28;119786;-70
2022/11/04 10:03:21;;;;;;;17.67;2.97;;;;;;;16.31;62.95;99705.19;4937089;28;120144;-71
2022/11/04 10:05:52;;;;;;;14.98;2.80;;;;;;;16.48;61.65;99703.06;4931816;28;119613;-71
2022/11/04 10:08:35;;;;;;;17.75;3.15;;;;;;;16.56;60.53;99712.31;4932248;28;120049;-71
2022/11/04 10:11:05;;;;;;;15.15;2.80;;;;;;;16.64;60.37;99718.06;4931229;28;120964;-71
2022/11/04 10:14:10;;;;;;;16.73;2.88;;;;;;;16.68;59.65;99721.31;4932520;28;120085;-71
2022/11/04 10:17:01;;;;;;;16.40;3.13;;;;;;;16.73;59.20;99724.03;4934954;28;120187;-71
2022/11/04 10:19:50;;;;;;;15.73;3.05;;;;;;;16.78;59.29;99720.47;4932592;28;120158;-71
2022/11/04 10:22:32;;;;;;;12.40;2.75;;;;;;;16.73;59.01;99728.81;4932946;28;120158;-71
2022/11/04 10:25:22;;;;;;;16.23;2.83;;;;;;;16.69;58.97;99737.41;4909147;28;119966;-71
2022/11/04 10:27:50;;;;;;;17.92;3.35;;;;;;;16.65;59.44;99744.47;4930438;28;119554;-71
2022/11/04 10:30:19;;;;;;;18.38;3.53;;;;;;;16.62;58.55;99746.25;4934687;28;121707;-71
2022/11/04 10:32:55;;;;;;;15.88;3.17;;;;;;;16.67;60.39;99753.78;4946812;28;120118;-71
2022/11/04 10:35:35;;;;;;;17.10;3.10;;;;;;;16.73;58.91;99762.81;4933402;28;120006;-71
2022/11/04 10:38:16;;;;;;;17.83;3.15;;;;;;;16.80;59.73;99778.13;4932661;28;119622;-71
2022/11/04 10:40:46;;;;;;;16.13;3.20;;;;;;;16.89;59.10;99775.03;4931918;28;120149;-71
2022/11/04 10:43:17;;;;;;;13.85;2.70;;;;;;;16.95;58.78;99775.72;4931090;28;120477;-71
2022/11/04 10:46:08;;;;;;;14.00;2.90;;;;;;;16.99;57.59;99783.75;4934100;28;120446;-70
2022/11/04 10:49:06;;;;;;;17.23;3.03;;;;;;;17.04;58.47;99794.81;4932514;28;120518;-71
2022/11/04 10:51:32;;;;;;;12.60;2.65;;;;;;;17.07;57.53;99796.53;4874050;28;120081;-70
2022/11/04 10:54:00;;;;;;;14.27;2.72;;;;;;;17.10;57.02;99792.72;4932047;28;120324;-71
2022/11/04 10:56:39;;;;;;;14.75;2.85;;;;;;;17.12;57.27;99801.28;4932364;28;119873;-71
2022/11/04 10:59:27;;;;;;;12.50;3.13;;;;;;;17.01;56.63;99808.91;4930711;28;121207;-71
2022/11/04 11:01:56;;;;;;;16.10;3.40;;;;;;;16.87;57.00;99808.78;4930805;28;119692;-71
2022/11/04 11:04:36;;;;;;;14.75;2.83;;;;;;;16.71;57.47;99809.63;4931366;28;119695;-70
2022/11/04 11:07:35;;;;;;;11.48;2.67;;;;;;;16.65;57.88;99816.44;4935496;28;119895;-70
2022/11/04 11:10:02;;;;;;;11.55;2.45;;;;;;;16.62;57.39;99809.19;4931463;28;120214;-71
2022/11/04 11:12:39;;;;;;;12.70;2.83;;;;;;;16.58;58.35;99824.06;4935884;28;120282;-71
2022/11/04 11:15:23;;;;;;;12.27;2.58;;;;;;;16.64;57.93;99823.25;4929957;28;120176;-69
2022/11/04 11:17:52;;;;;;;12.45;3.05;;;;;;;16.66;56.61;99820.72;4933768;28;119948;-70
2022/11/04 11:20:23;;;;;;;11.60;2.85;;;;;;;16.65;57.23;99816.44;4932560;28;119972;-71
2022/11/04 11:22:50;;;;;;;11.50;2.45;;;;;;;16.63;57.45;99830.06;4926436;28;120828;-70
2022/11/04 11:25:22;;;;;;;11.93;2.75;;;;;;;16.70;57.17;99835.06;4929848;28;119751;-71
2022/11/04 11:28:00;;;;;;;12.98;2.80;;;;;;;16.76;57.77;99825.47;4929930;28;120063;-71
2022/11/04 11:30:45;;;;;;;9.35;2.22;;;;;;;16.88;57.76;99840.75;4932570;28;120311;-71
2022/11/04 11:33:29;;;;;;;9.70;2.33;;;;;;;16.93;56.54;99844.75;4930011;28;119927;-71
2022/11/04 11:36:30;;;;;;;12.95;2.60;;;;;;;16.97;56.63;99853.53;4932301;28;120794;-71
2022/11/04 11:39:04;;;;;;;12.10;2.47;;;;;;;17.00;57.17;99846.94;4893572;28;120097;-71
2022/11/04 11:41:57;;;;;;;10.60;2.47;;;;;;;17.16;56.54;99859.94;4939984;28;120449;-71
2022/11/04 11:44:46;;;;;;;13.43;2.70;;;;;;;17.30;56.74;99868.41;4931979;28;120344;-70
2022/11/04 11:47:41;;;;;;;13.77;2.85;;;;;;;17.35;55.39;99868.34;4913177;28;120008;-71
2022/11/04 11:50:12;;;;;;;15.32;2.97;;;;;;;17.27;55.23;99870.19;4928240;28;120532;-71
2022/11/04 11:52:39;;;;;;;14.48;2.75;;;;;;;17.19;56.13;99863.69;4929433;28;120223;-70
2022/11/04 11:55:27;;;;;;;16.95;3.28;;;;;;;17.13;56.23;99877.59;4933415;28;119848;-71
2022/11/04 11:58:26;;;;;;;13.13;2.80;;;;;;;17.09;56.30;99887.44;4927915;28;120463;-70
2022/11/04 12:01:04;;;;;;;13.30;2.70;;;;;;;17.06;56.30;99897.53;4930966;28;119612;-70
2022/11/04 12:03:34;;;;;;;13.48;3.00;;;;;;;17.07;56.79;99896.28;4929341;28;120630;-71
2022/11/04 12:06:31;;;;;;;13.23;2.72;;;;;;;17.07;56.86;99907.38;4928724;28;120078;-70
2022/11/04 12:09:36;;;;;;;12.10;2.67;;;;;;;17.09;57.56;99927.00;4940134;28;119831;-71
2022/11/04 12:12:20;;;;;;;12.20;2.53;;;;;;;17.11;57.28;99913.38;4942435;28;119629;-71